LEMH/MAH METAR and TAF weather

Enter ICAO airport designator
Station Type Date Time Source
LEMH METAR 2019/04/25 17:30 UTC NOAA

LEMH 251730Z 22013KT 190V260 9999 SCT035 16/13 Q1014


Station Type Date Time Source
LEMH Decoded METAR 2019/04/25 17:30 UTC NOAA

Menorca / Mahon, Spain (LEMH) 39-52N 004-14E 82M
Apr 25, 2019 - 01:30 PM EDT / 2019.04.25 1730 UTC
Wind: from the SW (220 degrees) at 15 MPH (13 KT) (direction variable):0
Visibility: greater than 7 mile(s):0
Sky conditions: partly cloudy
Temperature: 60 F (16 C)
Dew Point: 55 F (13 C)
Relative Humidity: 82%
Pressure (altimeter): 29.94 in. Hg (1014 hPa)
ob: LEMH 251730Z 22013KT 190V260 9999 SCT035 16/13 Q1014
cycle: 17

Station Type Date Time Source
LEMH TAF 2019/04/25 15:30 UTC NOAA

TAF LEMH 251400Z 2515/2615 20015G28KT 9999 FEW020 TX19/2613Z TN11/2606Z
TEMPO 2515/2517 22015G28KT
BECMG 2517/2519 22009KT
BECMG 2606/2608 28015KT

Example: see airport list